Santiago Méndez

Olheiro - Atlético Madrid
21 Out 2027
Quinta-feira
Processo

Personalidade

Adaptabilidade (8) Ambição (6) Controvérsia (9) Lealdade (1) Pressão (15) Profissionalismo (5) Espírito Esportivo (12) Temperamento (8)

Perfil

Estilo de Treinamento Democrático
Licença Nacional A
Determinação 11
Gestão de Pessoas 16
Motivação 15
Disciplina 13
Satisfação no Trabalho
100%
Fadiga
0%
Função Olheiro
Salário 101.6K p/s
Contrato 14.03.2029

Desempenho

Comportamento Bom
Eficácia do Treinamento
46%
Desenvolvimento do Jogador
60%
Prevenção de Lesões
70%
Implementação Tática
45%

Eventos Recentes

Participou de uma reunião de recrutamento agora
Recomendou um alvo de transferência agora
Participou de uma reunião de recrutamento agora
Participou de uma reunião de recrutamento 7d atrás
Recomendou um alvo de transferência 7d atrás
Participou de uma reunião de recrutamento 7d atrás
Participou de uma reunião de recrutamento 7d atrás
Participou de uma reunião de recrutamento 7d atrás

Monitorando agora

88
Jogador Clube Status Habilidade Confiança Observado Última observação Último voto
Nico Williams Athletic Bilbao Relatório pronto 165 / 168 83% 1 05.07.2027 Aprovar
Christos Mouzakitis Hull City Ativo 133 / 136 40% 7 30.05.2027 -
Assane Diao Lazio Ativo 146 / 149 40% 3 30.05.2027 -
Oscar Schwartau Norwich City Ativo 122 / 127 40% 1 30.05.2027 -
Jorrel Hato Chelsea Ativo 149 / 154 40% 4 28.05.2027 -
Jesús Rodríguez Como Ativo 143 / 148 40% 2 28.05.2027 -
David Valencia Alianza Petrolera Ativo 132 / 136 40% 3 27.05.2027 -
Christ Inao Oulaï Fiorentina Ativo 137 / 140 40% 3 27.05.2027 -
Louis Leroux FC Nantes Ativo 123 / 128 40% 2 27.05.2027 -
Ibrahim Maza Bayer Leverkusen Ativo 149 / 148 40% 3 24.05.2027 -
Khalis Merah Toulouse FC Ativo 118 / 127 40% 2 24.05.2027 -
Kevin Vazquez Cruz Azul Ativo 135 / 143 40% 5 23.05.2027 -
Désiré Doué Paris Saint-Germain Ativo 163 / 165 40% 2 23.05.2027 -
Rodrigo Mora AS Roma Ativo 135 / 143 40% 1 23.05.2027 -
Yussif Saidu Zaragoza Ativo 119 / 126 40% 3 21.05.2027 -
William Gomes Porto Ativo 147 / 146 40% 4 20.05.2027 -
Izan Merino Málaga Ativo 122 / 126 40% 4 19.05.2027 -
Yusi Alavés Ativo 131 / 130 40% 6 17.05.2027 -
Noah Nartey Olympique Lyonnais Ativo 135 / 136 40% 3 17.05.2027 -
Jofre Torrents Ajax Ativo 126 / 127 40% 4 14.05.2027 -
Lucas Høgsberg RC Strasbourg Ativo 136 / 140 40% 8 14.05.2027 -
Warren Zaïre-Emery Paris Saint-Germain Ativo 156 / 160 40% 4 13.05.2027 -
Leo Castledine Middlesbrough Ativo 125 / 134 40% 3 10.05.2027 -
Jan Virgili Club Brugge Perdido 135 / 134 40% 4 10.05.2027 -
Pablo García Racing Santander Ativo 125 / 129 40% 1 10.05.2027 -
Othmane Maamma Watford Ativo 126 / 129 40% 3 08.05.2027 -
Luís Guilherme Sporting CP Ativo 130 / 133 40% 2 08.05.2027 -
Caleb Yirenkyi Coventry City Ativo 134 / 139 40% 5 07.05.2027 -
Jayden Addai Como Ativo 137 / 137 40% 1 04.05.2027 -
David Ozoh Derby County Ativo 123 / 126 40% 3 30.04.2027 -
João Simões Sporting CP Ativo 135 / 139 40% 3 18.04.2027 -
Josh King Chelsea Ativo 138 / 144 40% 1 16.04.2027 -
Matvey Kislyak CSKA Moscow Ativo 136 / 137 40% 1 11.04.2027 -
Tom Fellows Southampton Ativo 136 / 130 40% 6 07.04.2027 -
Rayan Cherki Manchester City Ativo 167 / 166 40% 1 07.04.2027 -
Ferran Torres Paris Saint-Germain Ativo 170 / 165 40% 1 07.04.2027 -
Derensili Sanches Fernandes Huddersfield Town Ativo 123 / 122 40% 1 06.04.2027 -
Brian Rodríguez Club America Ativo 125 / 132 40% 1 06.04.2027 -
Andrés Martín Racing Santander Ativo 138 / 136 40% 2 04.04.2027 -
João Pedro Chelsea Ativo 156 / 153 40% 4 04.04.2027 -
Iliman N'Diaye Everton Ativo 164 / 158 40% 3 03.04.2027 -
Matheus Cunha Manchester United Ativo 158 / 156 40% 4 29.03.2027 -
Emi Rodriguez Leon Ativo 114 / 121 40% 2 29.03.2027 -
Moisés Caicedo Chelsea Ativo 174 / 168 40% 7 28.03.2027 -
Pablo Torre Mallorca Ativo 141 / 144 40% 2 28.03.2027 -
Khvicha Kvaratskhelia Paris Saint-Germain Ativo 171 / 166 40% 3 27.03.2027 Observar
Diego Lainez Tigres Ativo 137 / 132 40% 3 27.03.2027 -
Carlos Vicente Birmingham Ativo 141 / 140 40% 1 25.03.2027 -
Oihan Sancet Athletic Bilbao Ativo 158 / 158 40% 2 24.03.2027 -
Ramiro Sordo Santos Laguna Ativo 120 / 120 40% 1 24.03.2027 -
Ez Abde Girona Ativo 153 / 149 40% 1 22.03.2027 -
Bradley Barcola Liverpool Ativo 165 / 161 40% 1 21.03.2027 -
Antoine Semenyo Manchester City Ativo 162 / 158 40% 1 18.03.2027 -
Mohammed Kudus Tottenham Ativo 161 / 155 40% 2 14.03.2027 -
Gabriel Martinelli Brighton Ativo 161 / 161 40% 2 14.03.2027 -
Kai Havertz Arsenal Ativo 165 / 162 40% 1 14.03.2027 -
Iker Benito Queretaro Ativo 127 / 125 40% 2 11.03.2027 -
Tshepang Moremi Orlando Pirates Ativo 114 / 117 40% 2 08.03.2027 -
Jurriën Timber Arsenal Ativo 161 / 163 40% 6 01.03.2027 -
Jan Paul van Hecke Tottenham Ativo 159 / 157 40% 3 01.03.2027 -
Miloš Kerkez Liverpool Ativo 160 / 155 40% 4 01.03.2027 -
Curtis Jones Inter Ativo 162 / 155 40% 1 28.02.2027 Mais informações
Wesley Fofana Chelsea Ativo 164 / 161 40% 4 26.02.2027 -
Joško Gvardiol Napoli Ativo 168 / 163 40% 2 26.02.2027 -
Marc Guéhi Manchester City Ativo 166 / 168 40% 3 22.02.2027 -
Sandro Tonali Tottenham Ativo 175 / 171 40% 4 22.02.2027 -
Jakub Kiwior Everton Ativo 159 / 155 40% 3 22.02.2027 -
Micky van de Ven Tottenham Ativo 155 / 159 40% 3 21.02.2027 -
Boubacar Kamara Aston Villa Ativo 167 / 164 40% 1 21.02.2027 -
Manu Koné AS Roma Ativo 164 / 161 40% 2 20.02.2027 Mais informações
João Neves Paris Saint-Germain Ativo 167 / 166 40% 2 18.02.2027 -
Ryan Gravenberch Liverpool Ativo 159 / 161 40% 2 18.02.2027 -
Levi Colwill Chelsea Ativo 162 / 161 40% 2 15.02.2027 -
Alessandro Bastoni Inter Ativo 165 / 164 40% 3 12.02.2027 -
Nico González Newcastle United Ativo 161 / 160 40% 1 11.02.2027 -
Willian Pacho Paris Saint-Germain Ativo 165 / 161 40% 1 11.02.2027 -
Jeremie Frimpong Liverpool Ativo 160 / 159 40% 1 11.02.2027 -
Sven Botman Newcastle United Ativo 159 / 157 40% 2 09.02.2027 -
Pierre Kalulu Juventus Ativo 157 / 153 40% 2 02.02.2027 -
Matthijs de Ligt Manchester United Ativo 163 / 157 40% 1 01.02.2027 -
Martín Zubimendi Arsenal Ativo 166 / 162 40% 2 21.09.2026 -
Declan Rice Arsenal Rejeitado 187 / 184 40% 2 20.09.2026 Mais informações
Achraf Hakimi Paris Saint-Germain Ativo 180 / 176 40% 1 18.09.2026 -
Reece James Chelsea Ativo 170 / 173 40% 1 17.09.2026 -
Dominik Szoboszlai Liverpool Ativo 164 / 164 40% 2 16.09.2026 -
Éderson Feyenoord Ativo 160 / 155 40% 2 14.09.2026 -
Alexis Mac Allister Liverpool Ativo 163 / 160 40% 1 07.09.2026 -
Senne Lammens Manchester United Ativo 139 / 144 40% 1 03.08.2026 -